Time;durP1;ratioP1;P1;durP2;ratioP2;P2;SDS_P1;SDS_P2;PMS_P1;PMS_P2;Temp;Humidity;BMP_temperature;BMP_pressure;BME280_temperature;BME280_humidity;BME280_pressure;Samples;Min_cycle;Max_cycle;Signal;HPM_P1;HPM_P2
2021/10/17 00:00:33;;;;;;;9.88;6.57;;;;;;;1.63;100.00;93336.22;2081640;28;20037;-87
2021/10/17 00:01:34;;;;;;;6.90;5.82;;;;;;;1.60;100.00;93331.66;2088871;28;20535;-85
2021/10/17 00:02:35;;;;;;;7.68;6.47;;;;;;;1.50;100.00;93327.00;2100803;28;20025;-86
2021/10/17 00:03:35;;;;;;;8.18;6.25;;;;;;;1.43;100.00;93332.91;2104571;28;20508;-87
2021/10/17 00:04:39;;;;;;;8.38;6.45;;;;;;;1.45;100.00;93329.94;2099112;28;20388;-87
2021/10/17 00:05:40;;;;;;;9.18;7.05;;;;;;;1.49;100.00;93328.09;2097961;28;20028;-89
2021/10/17 00:06:41;;;;;;;8.75;6.88;;;;;;;1.47;100.00;93327.69;2089601;28;20513;-86
2021/10/17 00:07:43;;;;;;;8.77;7.15;;;;;;;1.42;100.00;93334.00;2081375;28;20071;-86
2021/10/17 00:08:45;;;;;;;9.40;7.32;;;;;;;1.54;100.00;93332.28;2089998;28;20032;-86
2021/10/17 00:09:46;;;;;;;9.57;7.57;;;;;;;1.59;100.00;93329.38;2090044;28;20382;-86
2021/10/17 00:10:47;;;;;;;10.13;7.25;;;;;;;1.50;100.00;93338.28;2091293;28;20025;-87
2021/10/17 00:11:48;;;;;;;8.65;7.28;;;;;;;1.40;100.00;93338.09;2091290;28;20029;-86
2021/10/17 00:12:49;;;;;;;9.55;7.60;;;;;;;1.40;100.00;93328.31;2099549;28;20040;-89
2021/10/17 00:13:51;;;;;;;10.52;7.28;;;;;;;1.40;100.00;93338.09;2107990;28;20028;-87
2021/10/17 00:14:52;;;;;;;9.75;7.22;;;;;;;1.35;100.00;93333.88;2099871;28;20392;-86
2021/10/17 00:15:53;;;;;;;8.35;7.38;;;;;;;1.35;100.00;93339.16;2091240;28;20044;-86
2021/10/17 00:16:53;;;;;;;9.38;7.18;;;;;;;1.31;100.00;93342.84;2098900;28;20091;-87
2021/10/17 00:17:55;;;;;;;8.25;6.70;;;;;;;1.40;100.00;93336.22;2104211;28;20036;-85
2021/10/17 00:18:56;;;;;;;12.00;8.25;;;;;;;1.35;100.00;93333.88;2099408;28;20028;-86
2021/10/17 00:19:57;;;;;;;9.55;7.65;;;;;;;1.28;100.00;93331.16;2083098;28;20025;-88
2021/10/17 00:20:58;;;;;;;10.02;8.10;;;;;;;1.25;100.00;93339.75;2082961;28;20025;-88
2021/10/17 00:21:58;;;;;;;9.80;8.05;;;;;;;1.20;100.00;93346.06;2083054;28;20021;-88
2021/10/17 00:22:59;;;;;;;12.80;8.00;;;;;;;1.33;100.00;93351.16;2083003;28;20025;-88
2021/10/17 00:24:00;;;;;;;7.90;7.00;;;;;;;1.14;100.00;93344.84;2083099;28;20025;-86
2021/10/17 00:25:01;;;;;;;10.23;7.93;;;;;;;1.19;100.00;93336.66;2091394;28;20078;-87
2021/10/17 00:26:02;;;;;;;10.65;8.15;;;;;;;1.11;100.00;93336.88;2095283;28;20055;-85
2021/10/17 00:27:04;;;;;;;9.70;7.63;;;;;;;1.16;100.00;93342.59;2091134;28;20076;-89
2021/10/17 00:28:05;;;;;;;8.93;7.43;;;;;;;1.19;100.00;93347.19;2091126;28;20741;-87
2021/10/17 00:29:06;;;;;;;12.85;7.85;;;;;;;1.19;100.00;93341.91;2091204;28;20028;-87
2021/10/17 00:30:08;;;;;;;8.75;7.43;;;;;;;1.19;100.00;93341.16;2099645;28;20027;-87
2021/10/17 00:31:09;;;;;;;11.80;7.25;;;;;;;1.20;100.00;93342.69;2099399;28;20048;-86
2021/10/17 00:32:12;;;;;;;11.13;7.88;;;;;;;1.16;100.00;93341.84;2082898;28;20084;-90
2021/10/17 00:33:13;;;;;;;11.02;7.75;;;;;;;1.11;100.00;93331.63;2075374;28;20108;-86
2021/10/17 00:34:18;;;;;;;11.65;7.38;;;;;;;0.99;100.00;93341.19;2083096;28;20104;-89
2021/10/17 00:35:19;;;;;;;10.82;7.97;;;;;;;1.04;100.00;93339.38;2091033;28;20033;-87
2021/10/17 00:36:20;;;;;;;8.88;7.97;;;;;;;1.06;100.00;93335.31;2091104;28;20029;-86
2021/10/17 00:37:21;;;;;;;9.63;8.63;;;;;;;1.06;100.00;93340.56;2083115;28;20481;-87
2021/10/17 00:38:22;;;;;;;11.90;8.13;;;;;;;1.04;100.00;93340.13;2094420;28;20032;-84
2021/10/17 00:39:23;;;;;;;10.77;7.97;;;;;;;1.03;100.00;93337.88;2082913;28;20092;-87
2021/10/17 00:40:24;;;;;;;9.75;7.50;;;;;;;1.04;100.00;93340.13;2091253;28;20028;-90
2021/10/17 00:41:29;;;;;;;11.43;8.23;;;;;;;0.98;100.00;93344.19;2082890;28;20021;-87
2021/10/17 00:42:30;;;;;;;10.10;7.70;;;;;;;0.97;100.00;93342.66;2092070;28;20021;-89
2021/10/17 00:43:31;;;;;;;12.40;8.73;;;;;;;1.05;100.00;93336.38;2099377;28;20021;-86
2021/10/17 00:44:32;;;;;;;11.48;8.07;;;;;;;1.07;100.00;93336.06;2099398;28;20071;-86
2021/10/17 00:45:33;;;;;;;9.25;7.32;;;;;;;1.00;100.00;93340.06;2099560;28;20031;-89
2021/10/17 00:46:34;;;;;;;9.90;8.15;;;;;;;0.99;100.00;93338.56;2099192;28;20496;-87
2021/10/17 00:47:35;;;;;;;10.10;8.10;;;;;;;1.04;100.00;93336.75;2091160;28;20027;-87
2021/10/17 00:48:36;;;;;;;10.27;7.55;;;;;;;1.06;100.00;93330.03;2099209;28;20020;-87
2021/10/17 00:49:37;;;;;;;11.05;7.97;;;;;;;1.00;100.00;93336.69;2092898;28;20103;-87
2021/10/17 00:50:38;;;;;;;10.40;7.95;;;;;;;0.96;100.00;93333.97;2099264;28;20032;-87
2021/10/17 00:51:42;;;;;;;11.75;8.18;;;;;;;0.89;100.00;93341.75;2095601;28;20017;-87
2021/10/17 00:52:44;;;;;;;14.15;7.95;;;;;;;0.87;100.00;93338.72;2090979;28;20059;-85
2021/10/17 00:53:46;;;;;;;11.43;7.50;;;;;;;1.00;100.00;93337.44;2082768;28;20025;-86
2021/10/17 00:54:48;;;;;;;11.25;8.57;;;;;;;0.93;100.00;93336.56;2091077;28;20025;-87
2021/10/17 00:55:49;;;;;;;9.10;7.65;;;;;;;0.89;100.00;93344.41;2101957;28;20036;-85
2021/10/17 00:56:50;;;;;;;11.80;8.60;;;;;;;0.92;100.00;93340.28;2091049;28;20063;-85
2021/10/17 00:57:51;;;;;;;10.63;7.68;;;;;;;0.91;100.00;93333.50;2090957;28;20478;-87
2021/10/17 00:58:52;;;;;;;10.05;8.05;;;;;;;0.88;100.00;93337.63;2099357;28;20029;-86
2021/10/17 00:59:53;;;;;;;11.65;8.25;;;;;;;0.79;100.00;93337.06;2099149;28;20035;-85
2021/10/17 01:00:54;;;;;;;10.35;8.13;;;;;;;0.83;100.00;93343.13;2099348;28;20021;-88
2021/10/17 01:01:55;;;;;;;11.10;8.02;;;;;;;0.75;100.00;93341.50;2090883;28;20032;-87
2021/10/17 01:02:56;;;;;;;12.20;8.35;;;;;;;0.69;100.00;93341.00;2074340;28;20033;-87
2021/10/17 01:03:57;;;;;;;12.07;8.30;;;;;;;0.79;100.00;93344.19;2082688;28;20564;-88
2021/10/17 01:04:59;;;;;;;8.82;7.93;;;;;;;0.66;100.00;93346.97;2082853;28;20033;-86
2021/10/17 01:06:02;;;;;;;11.68;7.65;;;;;;;0.68;100.00;93336.09;2082875;28;20108;-86
2021/10/17 01:07:04;;;;;;;12.75;8.15;;;;;;;0.71;100.00;93338.06;2090890;28;20458;-89
2021/10/17 01:08:05;;;;;;;11.60;8.48;;;;;;;0.71;100.00;93335.41;2090966;28;20021;-85
2021/10/17 01:09:06;;;;;;;15.52;9.27;;;;;;;0.69;100.00;93337.63;2082632;28;20048;-86
2021/10/17 01:10:08;;;;;;;11.98;8.55;;;;;;;0.71;100.00;93336.19;2074369;28;20487;-87
2021/10/17 01:11:09;;;;;;;12.10;7.88;;;;;;;0.69;100.00;93332.34;2091048;28;20497;-86
2021/10/17 01:12:10;;;;;;;10.98;7.85;;;;;;;0.73;100.00;93343.72;2099214;28;20104;-85
2021/10/17 01:13:18;;;;;;;9.93;7.53;;;;;;;0.59;100.00;93338.19;2090845;28;20425;-86
2021/10/17 01:14:20;;;;;;;11.48;8.52;;;;;;;0.63;100.00;93336.38;2084606;28;20026;-84
2021/10/17 01:15:21;;;;;;;12.38;7.78;;;;;;;0.70;100.00;93332.03;2082860;28;20026;-86
2021/10/17 01:16:22;;;;;;;11.60;8.50;;;;;;;0.74;100.00;93335.47;2082447;28;20060;-85
2021/10/17 01:17:23;;;;;;;12.57;7.85;;;;;;;0.72;100.00;93336.94;2090840;28;20075;-85
2021/10/17 01:18:25;;;;;;;11.88;8.40;;;;;;;0.72;100.00;93327.16;2099010;28;20016;-87
2021/10/17 01:19:26;;;;;;;13.27;7.90;;;;;;;0.76;100.00;93332.50;2082611;28;20474;-86
2021/10/17 01:20:27;;;;;;;11.00;7.45;;;;;;;0.71;100.00;93332.78;2082243;28;20029;-89
2021/10/17 01:21:28;;;;;;;13.80;9.05;;;;;;;0.69;100.00;93327.84;2090642;28;20082;-86
2021/10/17 01:22:29;;;;;;;13.55;9.20;;;;;;;0.70;100.00;93333.88;2090762;28;20138;-87
2021/10/17 01:23:30;;;;;;;13.57;8.73;;;;;;;0.69;100.00;93333.13;2090913;28;20503;-86
2021/10/17 01:24:31;;;;;;;11.55;8.10;;;;;;;0.61;100.00;93335.97;2090899;28;20159;-85
2021/10/17 01:25:32;;;;;;;13.23;8.55;;;;;;;0.55;100.00;93334.72;2099082;28;20528;-85
2021/10/17 01:26:34;;;;;;;12.82;8.73;;;;;;;0.54;100.00;93327.94;2098868;28;20493;-87
2021/10/17 01:27:35;;;;;;;12.88;9.02;;;;;;;0.53;100.00;93329.81;2099079;28;20085;-86
2021/10/17 01:28:36;;;;;;;11.43;8.70;;;;;;;0.46;100.00;93327.81;2098858;28;20024;-86
2021/10/17 01:29:37;;;;;;;11.52;8.35;;;;;;;0.45;100.00;93323.66;2098889;28;20530;-86
2021/10/17 01:30:38;;;;;;;16.65;8.95;;;;;;;0.50;100.00;93322.63;2107382;28;20020;-88
2021/10/17 01:31:52;;;;;;;14.00;9.40;;;;;;;0.58;100.00;93326.16;2090719;28;20036;-87
2021/10/17 01:32:53;;;;;;;12.38;8.63;;;;;;;0.52;100.00;93323.03;2084220;28;20060;-85
2021/10/17 01:33:53;;;;;;;12.70;8.75;;;;;;;0.46;100.00;93325.19;2090779;28;20017;-89
2021/10/17 01:34:54;;;;;;;16.75;8.93;;;;;;;0.53;100.00;93321.16;2098855;28;20029;-85
2021/10/17 01:35:55;;;;;;;11.70;8.88;;;;;;;0.49;100.00;93319.22;2090761;28;20025;-87
2021/10/17 01:36:56;;;;;;;11.55;8.73;;;;;;;0.43;100.00;93325.09;2090701;28;20025;-88
2021/10/17 01:37:57;;;;;;;11.35;9.02;;;;;;;0.41;100.00;93316.81;2099226;28;20028;-87
2021/10/17 01:38:58;;;;;;;12.73;9.38;;;;;;;0.48;100.00;93322.97;2099029;28;20020;-85
2021/10/17 01:39:59;;;;;;;12.05;9.00;;;;;;;0.45;100.00;93321.03;2082489;28;20025;-87
2021/10/17 01:41:00;;;;;;;13.75;9.23;;;;;;;0.42;100.00;93320.97;2099243;28;20079;-87
2021/10/17 01:42:01;;;;;;;17.33;9.50;;;;;;;0.46;100.00;93321.78;2103898;28;20020;-84
2021/10/17 01:43:03;;;;;;;13.10;8.32;;;;;;;0.46;100.00;93314.66;2099535;28;20090;-86
2021/10/17 01:44:10;;;;;;;12.25;8.88;;;;;;;0.37;100.00;93310.72;2090668;28;20029;-86
2021/10/17 01:45:11;;;;;;;12.18;8.70;;;;;;;0.39;100.00;93319.78;2099747;28;20048;-84
2021/10/17 01:46:12;;;;;;;11.68;8.60;;;;;;;0.43;100.00;93311.97;2090632;28;20021;-85
2021/10/17 01:47:13;;;;;;;12.80;8.82;;;;;;;0.40;100.00;93313.41;2090517;28;20054;-85
2021/10/17 01:48:14;;;;;;;12.68;8.63;;;;;;;0.52;100.00;93311.75;2090349;28;20057;-86
2021/10/17 01:49:15;;;;;;;12.10;8.40;;;;;;;0.50;100.00;93312.09;2082363;28;20032;-86
2021/10/17 01:50:17;;;;;;;12.30;8.80;;;;;;;0.48;100.00;93309.81;2096097;28;20045;-87
2021/10/17 01:51:18;;;;;;;12.27;8.45;;;;;;;0.44;100.00;93316.09;2107035;28;20067;-83
2021/10/17 01:52:19;;;;;;;15.27;7.88;;;;;;;0.40;100.00;93320.56;2090715;28;20017;-86
2021/10/17 01:53:20;;;;;;;9.07;7.45;;;;;;;0.41;100.00;93322.06;2098818;28;20024;-87
2021/10/17 01:54:23;;;;;;;11.18;7.50;;;;;;;0.39;100.00;93322.41;2107182;28;20027;-85
2021/10/17 01:55:24;;;;;;;12.18;8.20;;;;;;;0.31;100.00;93319.97;2107513;28;20086;-85
2021/10/17 01:56:24;;;;;;;9.85;7.30;;;;;;;0.27;100.00;93314.66;2093909;28;20029;-85
2021/10/17 01:57:25;;;;;;;9.00;7.10;;;;;;;0.26;100.00;93326.25;2098825;28;20381;-87
2021/10/17 01:58:26;;;;;;;9.90;7.55;;;;;;;0.32;100.00;93324.16;2102769;28;20016;-87
2021/10/17 01:59:27;;;;;;;10.40;7.35;;;;;;;0.17;100.00;93323.06;2099272;28;20020;-86
2021/10/17 02:00:28;;;;;;;9.50;7.07;;;;;;;0.14;100.00;93318.53;2105974;28;20060;-84
2021/10/17 02:01:29;;;;;;;8.80;6.63;;;;;;;0.11;100.00;93311.31;2106822;28;20024;-85
2021/10/17 02:02:30;;;;;;;9.75;7.03;;;;;;;0.17;100.00;93304.69;2091546;28;20116;-89
2021/10/17 02:03:31;;;;;;;9.52;7.05;;;;;;;0.13;100.00;93311.72;2082252;28;20021;-87
2021/10/17 02:04:32;;;;;;;7.38;6.60;;;;;;;0.20;100.00;93304.75;2082318;28;20032;-83
2021/10/17 02:05:33;;;;;;;8.32;6.78;;;;;;;0.19;100.00;93305.88;2082192;28;20382;-88
2021/10/17 02:08:12;;;;;;;;;;;;;;;0.25;100.00;93304.47;2133566;27;20186;-90
2021/10/17 02:09:13;;;;;;;9.73;6.07;;;;;;;0.24;100.00;93310.09;2122340;28;20392;-86
2021/10/17 02:10:14;;;;;;;6.40;5.78;;;;;;;0.25;100.00;93303.72;2113914;27;20058;-88
2021/10/17 02:11:15;;;;;;;6.95;5.78;;;;;;;0.19;100.00;93307.75;2113984;28;20404;-90
2021/10/17 02:12:21;;;;;;;6.75;5.70;;;;;;;0.18;100.00;93306.22;2113808;28;20028;-89
2021/10/17 02:13:22;;;;;;;7.35;6.20;;;;;;;0.18;100.00;93314.88;2106628;28;20481;-89
2021/10/17 02:14:23;;;;;;;7.63;6.57;;;;;;;0.15;100.00;93314.78;2105411;28;20024;-87
2021/10/17 02:15:24;;;;;;;7.80;5.70;;;;;;;0.18;100.00;93295.72;2113788;28;20095;-91
2021/10/17 02:16:24;;;;;;;7.40;6.63;;;;;;;0.15;100.00;93309.53;2113738;27;20077;-88
2021/10/17 02:17:25;;;;;;;8.10;5.97;;;;;;;0.10;100.00;93307.94;2122802;27;20016;-88
2021/10/17 02:18:26;;;;;;;6.05;5.45;;;;;;;-0.01;100.00;93304.31;2113773;28;20020;-88
2021/10/17 02:19:27;;;;;;;7.78;5.97;;;;;;;0.05;100.00;93302.97;2113689;28;20024;-91
2021/10/17 02:20:32;;;;;;;7.97;5.97;;;;;;;0.05;100.00;93310.09;2113782;28;20024;-91
2021/10/17 02:24:11;;;;;;;6.22;5.63;;;;;;;0.13;100.00;93296.75;2114259;28;20041;-89
2021/10/17 02:25:43;;;;;;;6.05;5.20;;;;;;;0.08;100.00;93298.88;2113580;28;20020;-91
2021/10/17 02:26:45;;;;;;;5.72;5.22;;;;;;;0.11;100.00;93298.94;2109737;28;20039;-87
2021/10/17 02:27:46;;;;;;;6.20;5.25;;;;;;;-0.05;100.00;93296.34;2113739;28;20554;-87
2021/10/17 02:28:47;;;;;;;6.30;5.70;;;;;;;-0.04;100.00;93303.16;2113437;28;20069;-90
2021/10/17 02:29:48;;;;;;;6.78;6.07;;;;;;;-0.13;100.00;93301.81;2113552;28;20610;-89
2021/10/17 02:30:49;;;;;;;9.20;6.53;;;;;;;-0.11;100.00;93297.75;2113511;28;20027;-89
2021/10/17 02:31:50;;;;;;;6.93;6.22;;;;;;;-0.15;100.00;93301.41;2105066;28;20020;-87
2021/10/17 02:32:51;;;;;;;8.90;6.55;;;;;;;-0.08;100.00;93294.44;2096693;28;20053;-87
2021/10/17 02:33:52;;;;;;;7.28;6.57;;;;;;;-0.07;100.00;93295.94;2105396;28;20112;-88
2021/10/17 02:34:52;;;;;;;7.45;6.40;;;;;;;-0.20;100.00;93293.78;2105095;28;20469;-91
2021/10/17 02:35:53;;;;;;;8.50;6.88;;;;;;;-0.20;100.00;93293.78;2105029;28;20031;-89
2021/10/17 02:36:54;;;;;;;8.15;6.68;;;;;;;-0.21;100.00;93287.78;2096837;28;20020;-89
2021/10/17 02:37:55;;;;;;;7.60;6.55;;;;;;;-0.12;100.00;93292.84;2105208;28;20016;-88
2021/10/17 02:38:56;;;;;;;9.52;7.50;;;;;;;-0.08;100.00;93289.19;2096787;28;20025;-90
2021/10/17 02:39:58;;;;;;;8.80;7.90;;;;;;;-0.15;100.00;93296.16;2105014;28;20424;-89
2021/10/17 02:40:59;;;;;;;8.05;7.20;;;;;;;-0.14;100.00;93290.53;2105068;28;20016;-89
2021/10/17 02:42:00;;;;;;;10.95;7.75;;;;;;;-0.17;100.00;93293.88;2104906;28;20623;-89
2021/10/17 02:43:01;;;;;;;9.95;8.48;;;;;;;-0.19;100.00;93290.81;2104840;28;20069;-87
2021/10/17 02:44:02;;;;;;;9.00;7.60;;;;;;;-0.20;100.00;93299.81;2105178;28;20020;-92
2021/10/17 02:45:04;;;;;;;9.38;8.23;;;;;;;-0.17;100.00;93290.50;2104965;28;20024;-88
2021/10/17 02:46:06;;;;;;;8.98;7.90;;;;;;;-0.18;100.00;93288.94;2096908;28;20020;-88
2021/10/17 02:47:06;;;;;;;8.60;7.65;;;;;;;-0.18;100.00;93294.94;2105144;28;20125;-86
2021/10/17 02:48:07;;;;;;;9.75;8.23;;;;;;;-0.22;100.00;93291.53;2105290;28;20028;-88
2021/10/17 02:49:08;;;;;;;9.27;8.07;;;;;;;-0.25;100.00;93292.19;2096567;28;20108;-91
2021/10/17 02:50:09;;;;;;;9.30;7.95;;;;;;;-0.26;100.00;93296.69;2088462;28;20119;-88
2021/10/17 02:51:12;;;;;;;10.68;7.75;;;;;;;-0.22;100.00;93293.34;2096608;28;20020;-88
2021/10/17 02:52:13;;;;;;;8.90;7.95;;;;;;;-0.29;100.00;93299.22;2096868;28;20032;-90
2021/10/17 02:53:14;;;;;;;11.70;7.30;;;;;;;-0.31;100.00;93294.34;2104977;28;20037;-89
2021/10/17 02:54:17;;;;;;;10.70;7.82;;;;;;;-0.35;100.00;93292.69;2096569;28;20035;-91
2021/10/17 02:55:17;;;;;;;11.20;7.90;;;;;;;-0.38;100.00;93298.66;2097225;28;20033;-88
2021/10/17 02:56:18;;;;;;;11.07;7.72;;;;;;;-0.29;100.00;93292.09;2101790;28;20610;-91
2021/10/17 02:57:19;;;;;;;9.48;8.00;;;;;;;-0.27;100.00;93291.75;2096391;28;20013;-93
2021/10/17 02:58:20;;;;;;;8.48;7.57;;;;;;;-0.29;100.00;93289.50;2105100;28;20027;-89
2021/10/17 02:59:21;;;;;;;9.15;6.63;;;;;;;-0.26;100.00;93291.44;2107839;28;20024;-88
2021/10/17 03:00:22;;;;;;;8.32;6.60;;;;;;;-0.28;100.00;93285.75;2098751;28;20029;-92
2021/10/17 03:01:23;;;;;;;8.25;7.10;;;;;;;-0.29;100.00;93296.59;2096955;28;20083;-90
2021/10/17 03:02:24;;;;;;;8.95;7.22;;;;;;;-0.33;100.00;93293.91;2088159;28;20021;-89
2021/10/17 03:03:26;;;;;;;8.75;7.15;;;;;;;-0.35;100.00;93290.88;2088720;28;20032;-92
2021/10/17 03:04:27;;;;;;;8.38;6.95;;;;;;;-0.32;100.00;93292.78;2088458;28;20048;-90
2021/10/17 03:05:29;;;;;;;6.97;6.28;;;;;;;-0.30;100.00;93287.22;2088494;28;20025;-90
2021/10/17 03:06:31;;;;;;;8.23;7.40;;;;;;;-0.30;100.00;93295.84;2088376;28;20116;-85
2021/10/17 03:07:36;;;;;;;8.85;7.32;;;;;;;-0.23;100.00;93291.84;2097031;28;20028;-90
2021/10/17 03:08:38;;;;;;;8.88;7.15;;;;;;;-0.31;100.00;93293.53;2087857;28;20047;-89
2021/10/17 03:09:39;;;;;;;8.70;6.93;;;;;;;-0.31;100.00;93293.53;2096130;28;20040;-89
2021/10/17 03:10:39;;;;;;;7.43;6.72;;;;;;;-0.26;100.00;93298.56;2107189;28;20020;-88
2021/10/17 03:11:40;;;;;;;7.55;6.40;;;;;;;-0.37;100.00;93300.94;2094206;28;20028;-87
2021/10/17 03:12:41;;;;;;;7.70;6.68;;;;;;;-0.32;100.00;93289.41;2094019;28;20013;-86
2021/10/17 03:13:42;;;;;;;9.55;6.78;;;;;;;-0.33;100.00;93288.66;2103807;28;20455;-86
2021/10/17 03:14:43;;;;;;;7.20;6.50;;;;;;;-0.37;100.00;93294.94;2108516;28;20118;-86
2021/10/17 03:15:44;;;;;;;7.22;6.47;;;;;;;-0.42;100.00;93282.81;2110246;28;20109;-89
2021/10/17 03:16:48;;;;;;;8.75;7.40;;;;;;;-0.41;100.00;93294.09;2104592;28;20016;-87
2021/10/17 03:17:49;;;;;;;9.82;7.18;;;;;;;-0.50;100.00;93283.75;2096305;28;20466;-85
2021/10/17 03:18:50;;;;;;;8.52;6.72;;;;;;;-0.39;100.00;93286.63;2088338;28;20022;-89
2021/10/17 03:19:51;;;;;;;7.47;6.72;;;;;;;-0.35;100.00;93290.06;2090885;28;20032;-90
2021/10/17 03:20:52;;;;;;;9.13;7.47;;;;;;;-0.28;100.00;93296.25;2099786;28;20024;-89
2021/10/17 03:21:53;;;;;;;7.82;6.78;;;;;;;-0.30;100.00;93292.47;2107514;28;20525;-87
2021/10/17 03:22:54;;;;;;;8.13;6.88;;;;;;;-0.28;100.00;93283.13;2107179;28;20109;-87
2021/10/17 03:23:54;;;;;;;10.77;6.53;;;;;;;-0.32;100.00;93289.41;2099226;28;20024;-88
2021/10/17 03:24:55;;;;;;;7.75;6.95;;;;;;;-0.35;100.00;93288.25;2099071;28;20435;-89
2021/10/17 03:25:56;;;;;;;8.10;7.30;;;;;;;-0.29;100.00;93283.47;2099117;28;20028;-90
2021/10/17 03:26:57;;;;;;;8.70;6.95;;;;;;;-0.33;100.00;93282.63;2099155;28;20504;-92
2021/10/17 03:27:58;;;;;;;8.60;7.13;;;;;;;-0.30;100.00;93279.34;2098866;28;20024;-90
2021/10/17 03:28:59;;;;;;;8.45;7.22;;;;;;;-0.33;100.00;93282.63;2098492;28;20020;-87
2021/10/17 03:30:00;;;;;;;8.32;6.88;;;;;;;-0.29;100.00;93280.84;2107410;28;20028;-89
2021/10/17 03:31:05;;;;;;;10.43;7.43;;;;;;;-0.35;100.00;93285.63;2090906;28;20487;-89
2021/10/17 03:32:06;;;;;;;9.27;7.68;;;;;;;-0.36;100.00;93284.06;2091209;28;20021;-88
2021/10/17 03:33:07;;;;;;;11.55;7.88;;;;;;;-0.41;100.00;93283.56;2090668;28;20028;-87
2021/10/17 03:34:08;;;;;;;8.90;7.22;;;;;;;-0.38;100.00;93281.03;2090678;28;20079;-86
2021/10/17 03:35:09;;;;;;;8.43;7.43;;;;;;;-0.42;100.00;93288.06;2095721;28;20020;-88
2021/10/17 03:36:10;;;;;;;11.05;7.25;;;;;;;-0.39;100.00;93282.16;2096136;28;20028;-87
2021/10/17 03:37:11;;;;;;;7.88;7.07;;;;;;;-0.37;100.00;93285.19;2107349;28;20052;-90
2021/10/17 03:38:11;;;;;;;9.23;7.20;;;;;;;-0.31;100.00;93290.91;2110155;28;20045;-89
2021/10/17 03:39:12;;;;;;;9.00;7.57;;;;;;;-0.25;100.00;93289.56;2090564;28;20098;-88
2021/10/17 03:40:13;;;;;;;8.88;7.13;;;;;;;-0.19;100.00;93292.69;2092456;28;20024;-88
2021/10/17 03:41:14;;;;;;;7.80;6.90;;;;;;;-0.28;100.00;93290.25;2099035;28;20086;-90
2021/10/17 03:42:15;;;;;;;8.55;7.32;;;;;;;-0.37;100.00;93284.41;2090595;28;20095;-88
2021/10/17 03:43:16;;;;;;;10.13;7.53;;;;;;;-0.39;100.00;93282.16;2099040;28;20024;-90
2021/10/17 03:44:17;;;;;;;10.48;7.38;;;;;;;-0.40;100.00;93285.84;2099603;28;20039;-91
2021/10/17 03:45:18;;;;;;;9.25;7.70;;;;;;;-0.34;100.00;93287.13;2099188;28;20028;-89
2021/10/17 03:46:20;;;;;;;9.05;7.90;;;;;;;-0.40;100.00;93291.09;2107507;28;20031;-90
2021/10/17 03:47:21;;;;;;;8.02;7.25;;;;;;;-0.42;100.00;93287.31;2098967;28;20115;-87
2021/10/17 03:48:22;;;;;;;8.75;7.18;;;;;;;-0.42;100.00;93289.94;2099016;28;20030;-88
2021/10/17 03:49:23;;;;;;;9.85;7.93;;;;;;;-0.41;100.00;93294.09;2090652;28;20462;-87
2021/10/17 03:50:24;;;;;;;11.70;7.88;;;;;;;-0.51;100.00;93287.50;2092349;28;20029;-87
2021/10/17 03:51:25;;;;;;;9.90;7.55;;;;;;;-0.51;100.00;93290.88;2091083;28;20470;-89
2021/10/17 03:52:26;;;;;;;9.75;7.65;;;;;;;-0.52;100.00;93285.97;2090663;28;20021;-93
2021/10/17 03:53:29;;;;;;;10.40;7.25;;;;;;;-0.45;100.00;93282.75;2107460;28;20538;-87
2021/10/17 03:54:30;;;;;;;9.07;7.47;;;;;;;-0.47;100.00;93283.09;2099497;28;20020;-89
2021/10/17 03:55:31;;;;;;;10.15;8.55;;;;;;;-0.51;100.00;93285.63;2107167;28;20016;-91
2021/10/17 03:56:31;;;;;;;10.90;8.68;;;;;;;-0.54;100.00;93285.53;2106442;28;20020;-89
2021/10/17 03:57:32;;;;;;;10.30;8.40;;;;;;;-0.55;100.00;93284.03;2090592;28;20112;-87
2021/10/17 03:58:33;;;;;;;11.38;8.95;;;;;;;-0.54;100.00;93286.31;2082464;28;20051;-87
2021/10/17 03:59:34;;;;;;;9.57;8.48;;;;;;;-0.60;100.00;93279.81;2090669;28;20029;-86
2021/10/17 04:00:35;;;;;;;10.25;8.38;;;;;;;-0.52;100.00;93284.13;2098756;28;20020;-87
2021/10/17 04:01:36;;;;;;;10.02;8.75;;;;;;;-0.55;100.00;93286.66;2107148;28;20012;-88
2021/10/17 04:02:37;;;;;;;11.20;9.15;;;;;;;-0.57;100.00;93286.22;2107183;28;20035;-87
2021/10/17 04:03:38;;;;;;;11.75;9.18;;;;;;;-0.59;100.00;93286.56;2098671;28;20028;-86
2021/10/17 04:04:39;;;;;;;10.02;7.95;;;;;;;-0.56;100.00;93280.66;2098817;28;20046;-86
2021/10/17 04:05:41;;;;;;;10.38;8.60;;;;;;;-0.53;100.00;93281.81;2098760;28;20051;-87
2021/10/17 04:06:42;;;;;;;10.45;8.88;;;;;;;-0.53;100.00;93282.59;2090501;28;20485;-85
2021/10/17 04:07:43;;;;;;;11.90;9.63;;;;;;;-0.62;100.00;93283.84;2090341;28;20025;-86
2021/10/17 04:08:44;;;;;;;14.32;8.55;;;;;;;-0.64;100.00;93284.22;2098541;28;20041;-88
2021/10/17 04:09:45;;;;;;;11.18;8.45;;;;;;;-0.62;100.00;93282.00;2107071;28;20396;-86
2021/10/17 04:10:46;;;;;;;9.50;8.43;;;;;;;-0.60;100.00;93285.06;2098679;28;20027;-89
2021/10/17 04:11:47;;;;;;;10.63;8.18;;;;;;;-0.59;100.00;93277.94;2098617;28;20024;-88
2021/10/17 04:12:48;;;;;;;10.32;8.15;;;;;;;-0.59;100.00;93283.19;2090445;28;20028;-86
2021/10/17 04:13:49;;;;;;;11.23;8.32;;;;;;;-0.62;100.00;93279.38;2098766;28;20118;-86
2021/10/17 04:14:49;;;;;;;9.95;8.23;;;;;;;-0.63;100.00;93275.22;2106990;28;20020;-87
2021/10/17 04:15:50;;;;;;;9.30;8.32;;;;;;;-0.58;100.00;93282.06;2106894;28;20489;-90
2021/10/17 04:16:51;;;;;;;9.35;8.15;;;;;;;-0.63;100.00;93277.84;2098425;28;20389;-88
2021/10/17 04:17:52;;;;;;;9.90;8.35;;;;;;;-0.65;100.00;93277.44;2107118;28;20047;-88
2021/10/17 04:18:53;;;;;;;9.27;8.27;;;;;;;-0.73;100.00;93278.38;2090527;28;20028;-89
2021/10/17 04:19:54;;;;;;;10.07;8.45;;;;;;;-0.68;100.00;93275.50;2090498;28;20020;-89
2021/10/17 04:20:57;;;;;;;11.93;9.13;;;;;;;-0.64;100.00;93276.34;2090276;28;20079;-88
2021/10/17 04:21:58;;;;;;;10.13;8.50;;;;;;;-0.60;100.00;93273.78;2099084;28;20461;-86
2021/10/17 04:23:00;;;;;;;10.43;8.50;;;;;;;-0.58;100.00;93274.19;2090649;28;20028;-87
2021/10/17 04:24:00;;;;;;;10.77;8.30;;;;;;;-0.66;100.00;93275.94;2082997;28;20064;-86
2021/10/17 04:25:03;;;;;;;9.60;8.48;;;;;;;-0.64;100.00;93275.56;2090878;28;20516;-88
2021/10/17 04:26:04;;;;;;;9.25;8.25;;;;;;;-0.73;100.00;93275.00;2098713;28;20107;-87
2021/10/17 04:27:07;;;;;;;10.13;8.13;;;;;;;-0.79;100.00;93277.88;2090245;28;20076;-88
2021/10/17 04:28:08;;;;;;;12.73;8.93;;;;;;;-0.68;100.00;93278.13;2091087;28;20025;-88
2021/10/17 04:29:09;;;;;;;9.18;8.27;;;;;;;-0.70;100.00;93282.94;2090147;28;20453;-91
2021/10/17 04:30:11;;;;;;;8.35;7.35;;;;;;;-0.85;100.00;93284.47;2098526;28;20024;-88
2021/10/17 04:31:12;;;;;;;9.23;8.18;;;;;;;-0.81;100.00;93279.31;2100108;28;20025;-89
2021/10/17 04:32:13;;;;;;;11.75;8.10;;;;;;;-0.75;100.00;93288.44;2115451;28;20098;-91
2021/10/17 04:33:14;;;;;;;8.68;7.78;;;;;;;-0.67;100.00;93284.13;2098551;28;20511;-87
2021/10/17 04:34:15;;;;;;;10.57;8.50;;;;;;;-0.71;100.00;93284.03;2082723;28;20071;-89
2021/10/17 04:35:16;;;;;;;11.05;8.13;;;;;;;-0.74;100.00;93286.59;2092166;28;20025;-87
2021/10/17 04:36:17;;;;;;;8.45;7.63;;;;;;;-0.72;100.00;93287.00;2107038;28;20024;-85
2021/10/17 04:37:18;;;;;;;8.68;7.57;;;;;;;-0.84;100.00;93278.13;2090384;28;20052;-90
2021/10/17 04:38:19;;;;;;;8.90;7.57;;;;;;;-0.80;100.00;93281.59;2082033;28;20036;-91
2021/10/17 04:39:20;;;;;;;8.25;7.43;;;;;;;-0.85;100.00;93281.84;2090509;28;20144;-88
2021/10/17 04:40:23;;;;;;;8.10;7.30;;;;;;;-0.80;100.00;93288.69;2098578;28;20081;-85
2021/10/17 04:41:24;;;;;;;8.10;7.30;;;;;;;-0.81;100.00;93279.31;2090320;28;20121;-87
2021/10/17 04:42:25;;;;;;;12.30;8.02;;;;;;;-0.79;100.00;93287.59;2088828;28;20025;-87
2021/10/17 04:43:26;;;;;;;8.25;7.45;;;;;;;-0.75;100.00;93280.56;2097528;28;20171;-88
2021/10/17 04:44:27;;;;;;;8.68;7.60;;;;;;;-0.74;100.00;93279.50;2101933;28;20028;-88
2021/10/17 04:45:29;;;;;;;8.13;7.32;;;;;;;-0.80;100.00;93280.81;2081588;28;20091;-91
2021/10/17 04:46:30;;;;;;;8.13;7.20;;;;;;;-0.82;100.00;93280.41;2090269;28;20053;-89
2021/10/17 04:47:31;;;;;;;9.05;7.25;;;;;;;-0.95;100.00;93282.38;2102384;28;20154;-89
2021/10/17 04:48:31;;;;;;;9.02;7.32;;;;;;;-0.97;100.00;93289.78;2098477;28;20028;-89
2021/10/17 04:49:33;;;;;;;8.07;7.15;;;;;;;-0.90;100.00;93284.72;2094226;28;20044;-90
2021/10/17 04:50:34;;;;;;;8.65;7.85;;;;;;;-0.90;100.00;93283.97;2090312;28;20120;-87